createdAt,value
2019-05-11T00:00:07.572Z,309.66
2019-05-11T00:01:07.573Z,309.85
2019-05-11T00:02:07.540Z,310.03
2019-05-11T00:03:07.530Z,309.48
2019-05-11T00:04:07.511Z,309.59
2019-05-11T00:05:07.499Z,310.07
2019-05-11T00:06:07.489Z,309.76
2019-05-11T00:07:07.485Z,309.80
2019-05-11T00:08:07.462Z,309.83
2019-05-11T00:09:07.465Z,309.29
2019-05-11T00:10:07.437Z,309.57
2019-05-11T00:11:07.455Z,309.77
2019-05-11T00:12:07.419Z,310.65
2019-05-11T00:13:07.413Z,309.53
2019-05-11T00:14:07.435Z,309.32
2019-05-11T00:15:07.405Z,309.64
2019-05-11T00:16:07.378Z,309.52
2019-05-11T00:17:07.361Z,309.50
2019-05-11T00:18:07.391Z,309.58
2019-05-11T00:19:07.373Z,309.75
2019-05-11T00:20:07.665Z,309.80
2019-05-11T00:21:07.325Z,309.68
2019-05-11T00:22:07.316Z,309.88
2019-05-11T00:23:07.295Z,309.17
2019-05-11T00:24:07.294Z,309.31
2019-05-11T00:25:07.273Z,309.64
2019-05-11T00:26:07.276Z,309.48
2019-05-11T00:27:07.273Z,309.54
2019-05-11T00:28:07.284Z,309.60
2019-05-11T00:29:07.231Z,309.20
2019-05-11T00:30:07.227Z,309.58
2019-05-11T00:31:07.212Z,309.32
2019-05-11T00:32:07.198Z,309.24
2019-05-11T00:33:07.191Z,310.00
2019-05-11T00:34:07.179Z,309.47
2019-05-11T00:35:07.168Z,309.52
2019-05-11T00:36:07.182Z,309.64
2019-05-11T00:37:07.152Z,309.51
2019-05-11T00:38:07.126Z,309.98
2019-05-11T00:39:07.142Z,309.53
2019-05-11T00:40:14.393Z,309.64
2019-05-11T00:41:08.094Z,309.23
2019-05-11T00:42:07.120Z,309.41
2019-05-11T00:43:07.078Z,309.57
2019-05-11T00:44:07.061Z,309.24
2019-05-11T00:45:07.086Z,309.75
2019-05-11T00:46:07.052Z,309.49
2019-05-11T00:47:07.038Z,309.49
2019-05-11T00:48:07.014Z,309.26
2019-05-11T00:49:07.032Z,309.76
2019-05-11T00:50:07.008Z,309.48
2019-05-11T00:51:06.987Z,309.57
2019-05-11T00:52:06.978Z,309.33
2019-05-11T00:53:06.990Z,309.65
2019-05-11T00:54:06.948Z,309.36
2019-05-11T00:55:07.007Z,309.48
2019-05-11T00:56:06.935Z,309.60
2019-05-11T00:57:06.919Z,309.15
2019-05-11T00:58:06.927Z,309.71
2019-05-11T00:59:20.903Z,309.72
2019-05-11T01:00:07.895Z,309.32
2019-05-11T01:01:06.881Z,309.53
2019-05-11T01:02:06.866Z,309.80
2019-05-11T01:03:06.855Z,309.73
2019-05-11T01:04:06.854Z,309.23
2019-05-11T01:05:06.880Z,308.93
2019-05-11T01:06:06.820Z,309.52
2019-05-11T01:07:06.840Z,309.68
2019-05-11T01:08:06.796Z,309.70
2019-05-11T01:09:06.794Z,309.79
2019-05-11T01:10:06.774Z,309.52
2019-05-11T01:11:06.764Z,309.45
2019-05-11T01:12:06.752Z,309.73
2019-05-11T01:13:06.734Z,309.86
2019-05-11T01:14:06.738Z,309.87
2019-05-11T01:15:06.759Z,309.72
2019-05-11T01:16:06.748Z,309.49
2019-05-11T01:17:06.694Z,309.37
2019-05-11T01:18:06.684Z,309.90
2019-05-11T01:19:06.686Z,309.42
2019-05-11T01:20:06.666Z,309.57
2019-05-11T01:21:06.663Z,309.67
2019-05-11T01:22:06.824Z,309.38
2019-05-11T01:23:06.625Z,309.47
2019-05-11T01:24:06.618Z,309.58
2019-05-11T01:25:06.600Z,309.43
2019-05-11T01:26:06.605Z,309.54
2019-05-11T01:27:06.578Z,309.38
2019-05-11T01:28:06.635Z,309.70
2019-05-11T01:29:06.562Z,308.99
2019-05-11T01:30:06.556Z,309.37
2019-05-11T01:31:06.543Z,309.58
2019-05-11T01:32:06.550Z,309.65
2019-05-11T01:33:06.557Z,309.44
2019-05-11T01:34:06.531Z,309.17
2019-05-11T01:35:06.497Z,309.31
2019-05-11T01:36:06.495Z,309.71
2019-05-11T01:37:06.501Z,308.92
2019-05-11T01:38:06.494Z,309.61
2019-05-11T01:39:06.464Z,309.65
2019-05-11T01:40:06.473Z,309.44
2019-05-11T01:41:06.446Z,309.59
2019-05-11T01:42:06.417Z,309.54
2019-05-11T01:43:06.437Z,309.35
2019-05-11T01:44:06.393Z,309.58
2019-05-11T01:45:06.389Z,309.36
2019-05-11T01:46:06.376Z,309.26
2019-05-11T01:47:06.369Z,309.43
2019-05-11T01:48:06.375Z,309.03
2019-05-11T01:49:06.362Z,309.38
2019-05-11T01:50:06.396Z,309.25
2019-05-11T01:51:06.327Z,309.54
2019-05-11T01:52:06.336Z,309.28
2019-05-11T01:53:06.295Z,309.80
2019-05-11T01:54:06.295Z,309.41
2019-05-11T01:55:06.272Z,309.12
2019-05-11T01:56:06.272Z,309.36
2019-05-11T01:57:06.267Z,309.42
2019-05-11T01:58:06.272Z,309.22
2019-05-11T01:59:06.328Z,309.76
2019-05-11T02:00:06.240Z,309.52
2019-05-11T02:01:06.200Z,309.62
2019-05-11T02:02:06.201Z,309.18
2019-05-11T02:03:06.199Z,309.41
2019-05-11T02:04:06.175Z,309.48
2019-05-11T02:05:06.166Z,309.49
2019-05-11T02:06:06.179Z,309.29
2019-05-11T02:07:06.137Z,309.23
2019-05-11T02:08:06.147Z,309.32
2019-05-11T02:09:06.116Z,308.63
2019-05-11T02:10:06.139Z,309.50
2019-05-11T02:11:15.535Z,309.41
2019-05-11T02:12:07.091Z,309.42
2019-05-11T02:13:06.088Z,309.31
2019-05-11T02:14:06.070Z,309.52
2019-05-11T02:15:06.063Z,309.03
2019-05-11T02:16:06.043Z,308.73
2019-05-11T02:17:06.056Z,309.58
2019-05-11T02:18:06.204Z,309.63
2019-05-11T02:19:06.020Z,309.56
2019-05-11T02:20:05.997Z,309.30
2019-05-11T02:21:05.993Z,309.38
2019-05-11T02:22:05.992Z,309.39
2019-05-11T02:23:05.976Z,309.52
2019-05-11T02:24:05.953Z,309.66
2019-05-11T02:25:06.010Z,309.42
2019-05-11T02:26:05.974Z,309.17
2019-05-11T02:27:05.914Z,309.58
2019-05-11T02:28:05.907Z,309.48
2019-05-11T02:29:05.895Z,309.64
2019-05-11T02:30:05.886Z,309.44
2019-05-11T02:31:05.892Z,309.71
2019-05-11T02:32:05.912Z,309.39
2019-05-11T02:33:05.852Z,309.95
2019-05-11T02:34:05.867Z,309.36
2019-05-11T02:35:05.830Z,309.47
2019-05-11T02:36:05.835Z,309.65
2019-05-11T02:37:05.810Z,309.68
2019-05-11T02:38:05.790Z,309.60
2019-05-11T02:39:05.799Z,309.43
2019-05-11T02:40:05.790Z,309.34
2019-05-11T02:41:05.793Z,309.25
2019-05-11T02:42:05.777Z,309.34
2019-05-11T02:43:05.750Z,309.43
2019-05-11T02:44:05.729Z,309.21
2019-05-11T02:45:05.728Z,308.88
2019-05-11T02:46:05.707Z,309.42
2019-05-11T02:47:05.690Z,309.40
2019-05-11T02:48:05.683Z,309.55
2019-05-11T02:49:05.701Z,309.41
2019-05-11T02:50:05.661Z,309.81
2019-05-11T02:51:05.685Z,309.27
2019-05-11T02:52:05.630Z,309.85
2019-05-11T02:53:05.645Z,309.58
2019-05-11T02:54:05.618Z,309.42
2019-05-11T02:55:05.646Z,309.58
2019-05-11T02:56:05.600Z,309.98
2019-05-11T02:57:05.603Z,309.54
2019-05-11T02:58:05.571Z,309.74
2019-05-11T02:59:05.887Z,309.47
2019-05-11T03:00:05.587Z,309.55
2019-05-11T03:01:05.540Z,309.52
2019-05-11T03:02:05.538Z,309.65
2019-05-11T03:03:05.568Z,309.45
2019-05-11T03:04:05.513Z,309.66
2019-05-11T03:05:05.504Z,309.65
2019-05-11T03:06:05.488Z,309.67
2019-05-11T03:07:05.477Z,309.61
2019-05-11T03:08:05.478Z,309.47
2019-05-11T03:09:05.497Z,309.30
2019-05-11T03:10:05.442Z,309.48
2019-05-11T03:11:05.428Z,309.54
2019-05-11T03:12:05.416Z,309.54
2019-05-11T03:13:05.444Z,309.42
2019-05-11T03:14:05.406Z,309.43
2019-05-11T03:15:05.400Z,309.25
2019-05-11T03:16:05.379Z,309.51
2019-05-11T03:17:05.376Z,309.20
2019-05-11T03:18:05.385Z,309.89
2019-05-11T03:19:05.348Z,309.99
2019-05-11T03:20:05.329Z,309.68
2019-05-11T03:21:05.335Z,309.60
2019-05-11T03:22:05.311Z,309.67
2019-05-11T03:23:05.300Z,309.38
2019-05-11T03:24:05.291Z,309.49
2019-05-11T03:25:05.295Z,309.53
2019-05-11T03:26:05.271Z,309.69
2019-05-11T03:27:05.253Z,309.07
2019-05-11T03:28:05.270Z,309.54
2019-05-11T03:29:05.231Z,309.54
2019-05-11T03:30:05.235Z,309.33
2019-05-11T03:31:05.213Z,309.67
2019-05-11T03:32:05.195Z,309.54
2019-05-11T03:33:05.181Z,309.54
2019-05-11T03:34:05.199Z,310.03
2019-05-11T03:35:05.182Z,310.06
2019-05-11T03:36:05.162Z,309.93
2019-05-11T03:37:05.142Z,309.82
2019-05-11T03:38:05.145Z,310.06
2019-05-11T03:39:05.134Z,309.49
2019-05-11T03:40:05.302Z,309.69
2019-05-11T03:41:05.145Z,309.90
2019-05-11T03:42:14.539Z,309.99
2019-05-11T03:43:06.094Z,310.27
2019-05-11T03:44:05.079Z,309.50
2019-05-11T03:45:05.069Z,310.40
2019-05-11T03:46:05.045Z,309.73
2019-05-11T03:47:05.047Z,309.79
2019-05-11T03:48:05.020Z,310.05
2019-05-11T03:49:05.008Z,310.10
2019-05-11T03:50:05.019Z,310.09
2019-05-11T03:51:04.981Z,310.16
2019-05-11T03:52:04.978Z,310.20
2019-05-11T03:53:04.972Z,310.14
2019-05-11T03:54:05.100Z,310.56
2019-05-11T03:55:04.945Z,310.22
2019-05-11T03:56:04.954Z,310.73
2019-05-11T03:57:04.913Z,309.87
2019-05-11T03:58:04.929Z,310.07
2019-05-11T03:59:04.984Z,309.87
2019-05-11T04:00:04.939Z,309.81
2019-05-11T04:01:04.884Z,309.89
2019-05-11T04:02:04.905Z,310.12
2019-05-11T04:03:04.899Z,309.99
2019-05-11T04:04:04.850Z,310.13
2019-05-11T04:05:04.844Z,310.27
2019-05-11T04:06:04.816Z,310.14
2019-05-11T04:07:04.839Z,309.92
2019-05-11T04:08:04.877Z,309.90
2019-05-11T04:09:04.787Z,309.99
2019-05-11T04:10:04.790Z,309.38
2019-05-11T04:11:04.766Z,310.11
2019-05-11T04:12:04.754Z,309.72
2019-05-11T04:13:04.760Z,309.58
2019-05-11T04:14:04.743Z,309.61
2019-05-11T04:15:04.731Z,309.78
2019-05-11T04:16:04.705Z,309.68
2019-05-11T04:17:04.693Z,309.58
2019-05-11T04:18:04.749Z,309.89
2019-05-11T04:19:04.725Z,309.77
2019-05-11T04:20:04.661Z,309.69
2019-05-11T04:21:04.660Z,309.80
2019-05-11T04:22:04.681Z,309.91
2019-05-11T04:23:04.640Z,309.52
2019-05-11T04:24:04.620Z,310.05
2019-05-11T04:25:04.607Z,310.02
2019-05-11T04:26:04.600Z,310.18
2019-05-11T04:27:04.603Z,309.31
2019-05-11T04:28:04.566Z,309.76
2019-05-11T04:29:04.570Z,309.87
2019-05-11T04:30:04.550Z,309.66
2019-05-11T04:31:04.584Z,309.71
2019-05-11T04:32:04.540Z,309.74
2019-05-11T04:33:04.514Z,309.92
2019-05-11T04:34:04.508Z,309.89
2019-05-11T04:35:04.491Z,309.98
2019-05-11T04:36:04.496Z,310.01
2019-05-11T04:37:04.472Z,310.14
2019-05-11T04:38:04.473Z,310.30
2019-05-11T04:39:04.477Z,309.93
2019-05-11T04:40:04.438Z,309.89
2019-05-11T04:41:04.426Z,309.95
2019-05-11T04:42:04.419Z,309.86
2019-05-11T04:43:04.416Z,309.62
2019-05-11T04:44:04.405Z,309.69
2019-05-11T04:45:04.386Z,309.81
2019-05-11T04:46:04.383Z,309.56
2019-05-11T04:47:04.367Z,310.00
2019-05-11T04:48:04.370Z,309.99
2019-05-11T04:49:04.349Z,309.94
2019-05-11T04:50:04.325Z,310.25
2019-05-11T04:51:04.359Z,309.52
2019-05-11T04:52:04.332Z,309.58
2019-05-11T04:53:04.755Z,309.58
2019-05-11T04:54:04.605Z,309.46
2019-05-11T04:55:04.285Z,310.18
2019-05-11T04:56:04.268Z,309.63
2019-05-11T04:57:04.321Z,309.33
2019-05-11T04:58:04.278Z,309.58
2019-05-11T04:59:04.252Z,309.54
2019-05-11T05:00:04.227Z,310.61
2019-05-11T05:01:04.226Z,309.77
2019-05-11T05:02:04.307Z,309.48
2019-05-11T05:03:04.190Z,309.70
2019-05-11T05:04:13.987Z,310.13
2019-05-11T05:05:05.196Z,309.45
2019-05-11T05:06:22.304Z,309.88
2019-05-11T05:07:10.029Z,309.61
2019-05-11T05:08:09.816Z,309.97
2019-05-11T05:09:05.135Z,309.67
2019-05-11T05:10:04.112Z,310.10
2019-05-11T05:11:04.112Z,309.96
2019-05-11T05:12:08.442Z,309.80
2019-05-11T05:13:10.549Z,309.78
2019-05-11T05:14:08.323Z,309.30
2019-05-11T05:15:04.081Z,309.97
2019-05-11T05:16:04.043Z,310.20
2019-05-11T05:17:04.050Z,310.32
2019-05-11T05:18:04.047Z,310.04
2019-05-11T05:19:04.011Z,309.75
2019-05-11T05:20:04.001Z,309.86
2019-05-11T05:21:03.998Z,310.24
2019-05-11T05:22:03.980Z,310.05
2019-05-11T05:23:03.995Z,310.61
2019-05-11T05:24:03.954Z,310.00
2019-05-11T05:25:03.939Z,310.09
2019-05-11T05:26:03.931Z,310.18
2019-05-11T05:27:03.959Z,310.53
2019-05-11T05:28:03.912Z,310.63
2019-05-11T05:29:03.910Z,310.64
2019-05-11T05:30:03.956Z,310.38
2019-05-11T05:31:03.879Z,310.78
2019-05-11T05:32:03.940Z,310.39
2019-05-11T05:33:03.851Z,310.32
2019-05-11T05:34:03.848Z,310.46
2019-05-11T05:35:03.866Z,310.47
2019-05-11T05:36:03.819Z,310.47
2019-05-11T05:37:03.809Z,310.00
2019-05-11T05:38:03.815Z,310.08
2019-05-11T05:39:03.794Z,310.40
2019-05-11T05:40:03.791Z,310.54
2019-05-11T05:41:03.766Z,310.61
2019-05-11T05:42:03.768Z,310.64
2019-05-11T05:43:03.736Z,310.53
2019-05-11T05:44:03.740Z,310.43
2019-05-11T05:45:03.822Z,310.39
2019-05-11T05:46:03.747Z,310.60
2019-05-11T05:47:03.695Z,310.52
2019-05-11T05:48:03.695Z,310.21
2019-05-11T05:49:03.691Z,310.18
2019-05-11T05:50:03.662Z,310.09
2019-05-11T05:51:03.647Z,310.08
2019-05-11T05:52:03.757Z,310.59
2019-05-11T05:53:03.627Z,310.15
2019-05-11T05:54:03.610Z,309.95
2019-05-11T05:55:03.607Z,310.10
2019-05-11T05:56:03.625Z,310.10
2019-05-11T05:57:03.594Z,309.98
2019-05-11T05:58:03.573Z,310.20
2019-05-11T05:59:03.568Z,309.78
2019-05-11T06:00:03.589Z,309.91
2019-05-11T06:01:03.550Z,309.70
2019-05-11T06:02:03.546Z,309.89
2019-05-11T06:03:03.721Z,310.11
2019-05-11T06:04:03.499Z,309.88
2019-05-11T06:05:03.491Z,309.70
2019-05-11T06:06:03.522Z,309.84
2019-05-11T06:07:03.482Z,309.81
2019-05-11T06:08:03.482Z,310.17
2019-05-11T06:09:03.443Z,310.09
2019-05-11T06:10:03.431Z,309.70
2019-05-11T06:11:03.421Z,309.80
2019-05-11T06:12:03.446Z,309.90
2019-05-11T06:13:03.415Z,309.96
2019-05-11T06:14:03.525Z,309.73
2019-05-11T06:15:03.376Z,310.01
2019-05-11T06:16:03.359Z,310.40
2019-05-11T06:17:03.373Z,310.01
2019-05-11T06:18:03.351Z,309.77
2019-05-11T06:19:03.345Z,310.19
2019-05-11T06:20:04.076Z,309.78
2019-05-11T06:21:03.314Z,309.97
2019-05-11T06:22:03.300Z,310.26
2019-05-11T06:23:03.290Z,310.11
2019-05-11T06:24:06.578Z,310.05
2019-05-11T06:25:03.284Z,309.76
2019-05-11T06:26:03.263Z,310.11
2019-05-11T06:27:03.302Z,309.66
2019-05-11T06:28:03.234Z,309.15
2019-05-11T06:29:03.233Z,309.47
2019-05-11T06:30:03.249Z,309.52
2019-05-11T06:31:03.246Z,309.02
2019-05-11T06:32:03.186Z,308.93
2019-05-11T06:33:03.209Z,309.35
2019-05-11T06:34:03.207Z,309.23
2019-05-11T06:35:03.192Z,309.11
2019-05-11T06:36:03.155Z,308.87
2019-05-11T06:37:03.163Z,309.18
2019-05-11T06:38:03.121Z,309.19
2019-05-11T06:39:03.113Z,308.83
2019-05-11T06:40:03.104Z,309.13
2019-05-11T06:41:03.093Z,309.29
2019-05-11T06:42:03.116Z,308.93
2019-05-11T06:43:03.124Z,309.22
2019-05-11T06:44:03.216Z,309.17
2019-05-11T06:45:03.052Z,309.02
2019-05-11T06:46:03.047Z,308.69
2019-05-11T06:47:03.050Z,308.57
2019-05-11T06:48:03.015Z,308.56
2019-05-11T06:49:03.107Z,308.31
2019-05-11T06:50:02.984Z,308.53
2019-05-11T06:51:02.973Z,308.74
2019-05-11T06:52:02.994Z,308.65
2019-05-11T06:53:02.967Z,309.23
2019-05-11T06:54:03.401Z,308.97
2019-05-11T06:55:02.922Z,308.73
2019-05-11T06:56:02.922Z,308.68
2019-05-11T06:57:02.910Z,308.45
2019-05-11T06:58:03.033Z,309.49
2019-05-11T06:59:02.874Z,308.97
2019-05-11T07:00:02.930Z,308.82
2019-05-11T07:01:02.854Z,309.03
2019-05-11T07:02:02.883Z,308.51
2019-05-11T07:03:02.897Z,309.19
2019-05-11T07:04:02.834Z,309.08
2019-05-11T07:05:02.808Z,308.71
2019-05-11T07:06:03.418Z,309.41
2019-05-11T07:07:02.884Z,309.10
2019-05-11T07:08:02.796Z,309.54
2019-05-11T07:09:02.791Z,309.77
2019-05-11T07:10:03.114Z,309.96
2019-05-11T07:11:02.889Z,309.15
2019-05-11T07:12:02.986Z,309.85
2019-05-11T07:13:02.765Z,309.70
2019-05-11T07:14:19.149Z,309.17
2019-05-11T07:15:03.704Z,309.03
2019-05-11T07:16:02.685Z,309.55
2019-05-11T07:17:02.693Z,309.47
2019-05-11T07:18:02.665Z,309.60
2019-05-11T07:19:03.307Z,309.45
2019-05-11T07:20:03.643Z,309.39
2019-05-11T07:21:02.806Z,309.77
2019-05-11T07:22:02.616Z,309.15
2019-05-11T07:23:02.609Z,309.89
2019-05-11T07:24:02.675Z,310.11
2019-05-11T07:25:02.587Z,309.86
2019-05-11T07:26:02.577Z,309.93
2019-05-11T07:27:02.575Z,309.54
2019-05-11T07:28:02.629Z,309.69
2019-05-11T07:29:03.385Z,309.54
2019-05-11T07:30:02.535Z,310.04
2019-05-11T07:31:02.519Z,309.81
2019-05-11T07:32:12.244Z,309.67
2019-05-11T07:33:03.496Z,309.50
2019-05-11T07:34:02.499Z,309.39
2019-05-11T07:35:03.401Z,309.59
2019-05-11T07:36:02.462Z,310.09
2019-05-11T07:37:02.466Z,309.29
2019-05-11T07:38:02.468Z,309.72
2019-05-11T07:39:02.436Z,309.15
2019-05-11T07:40:02.422Z,309.51
2019-05-11T07:41:02.420Z,309.31
2019-05-11T07:42:02.401Z,309.22
2019-05-11T07:43:05.950Z,309.08
2019-05-11T07:44:02.372Z,309.02
2019-05-11T07:45:02.368Z,309.26
2019-05-11T07:46:02.685Z,309.33
2019-05-11T07:47:02.339Z,308.54
2019-05-11T07:48:02.333Z,308.37
2019-05-11T07:49:02.450Z,308.62
2019-05-11T07:50:02.419Z,308.77
2019-05-11T07:51:02.353Z,308.60
2019-05-11T07:52:02.297Z,308.50
2019-05-11T07:53:02.273Z,308.31
2019-05-11T07:54:02.275Z,308.56
2019-05-11T07:55:02.301Z,308.33
2019-05-11T07:56:02.243Z,308.34
2019-05-11T07:57:02.232Z,308.30
2019-05-11T07:58:02.251Z,308.68
2019-05-11T07:59:02.209Z,308.42
2019-05-11T08:00:02.205Z,308.70
2019-05-11T08:01:02.183Z,309.15
2019-05-11T08:02:02.232Z,308.80
2019-05-11T08:03:02.164Z,308.29
2019-05-11T08:04:02.189Z,309.00
2019-05-11T08:05:02.206Z,308.96
2019-05-11T08:06:02.907Z,308.28
2019-05-11T08:07:02.118Z,308.79
2019-05-11T08:08:02.126Z,308.45
2019-05-11T08:09:02.131Z,308.32
2019-05-11T08:10:02.090Z,308.57
2019-05-11T08:11:02.128Z,309.14
2019-05-11T08:12:02.218Z,309.25
2019-05-11T08:13:02.111Z,308.65
2019-05-11T08:14:02.048Z,309.14
2019-05-11T08:15:09.045Z,309.63
2019-05-11T08:16:03.037Z,309.23
2019-05-11T08:17:02.017Z,308.41
2019-05-11T08:18:02.079Z,309.32
2019-05-11T08:19:01.992Z,309.43
2019-05-11T08:20:01.972Z,309.09
2019-05-11T08:21:01.962Z,309.22
2019-05-11T08:22:01.959Z,309.07
2019-05-11T08:23:02.038Z,308.87
2019-05-11T08:24:01.931Z,308.80
2019-05-11T08:25:01.942Z,309.32
2019-05-11T08:26:01.926Z,308.70
2019-05-11T08:27:01.921Z,309.33
2019-05-11T08:28:01.902Z,309.12
2019-05-11T08:29:01.918Z,308.82
2019-05-11T08:30:01.872Z,308.83
2019-05-11T08:31:01.893Z,309.02
2019-05-11T08:32:01.844Z,309.14
2019-05-11T08:33:01.839Z,308.91
2019-05-11T08:34:01.836Z,309.54
2019-05-11T08:35:01.808Z,309.24
2019-05-11T08:36:01.796Z,308.80
2019-05-11T08:37:01.788Z,309.38
2019-05-11T08:38:01.775Z,308.85
2019-05-11T08:39:01.787Z,308.71
2019-05-11T08:40:01.745Z,309.32
2019-05-11T08:41:01.746Z,308.84
2019-05-11T08:42:03.345Z,309.12
2019-05-11T08:43:01.733Z,309.53
2019-05-11T08:44:01.706Z,308.68
2019-05-11T08:45:16.002Z,308.67
2019-05-11T08:46:02.745Z,308.64
2019-05-11T08:47:01.670Z,308.77
2019-05-11T08:48:01.662Z,308.97
2019-05-11T08:49:01.654Z,309.16
2019-05-11T08:50:01.648Z,308.80
2019-05-11T08:51:01.640Z,308.65
2019-05-11T08:52:01.627Z,308.50
2019-05-11T08:53:01.608Z,308.71
2019-05-11T08:54:01.598Z,308.90
2019-05-11T08:55:01.589Z,308.82
2019-05-11T08:56:01.587Z,309.04
2019-05-11T08:57:01.567Z,308.77
2019-05-11T08:58:01.618Z,308.77
2019-05-11T08:59:01.563Z,308.92
2019-05-11T09:00:02.354Z,309.10
2019-05-11T09:01:01.555Z,308.80
2019-05-11T09:02:01.524Z,308.49
2019-05-11T09:03:01.501Z,309.49
2019-05-11T09:04:01.480Z,308.95
2019-05-11T09:05:01.476Z,308.95
2019-05-11T09:06:01.467Z,309.45
2019-05-11T09:07:01.479Z,309.01
2019-05-11T09:08:01.483Z,308.71
2019-05-11T09:09:01.429Z,309.12
2019-05-11T09:10:01.413Z,308.68
2019-05-11T09:11:01.785Z,309.21
2019-05-11T09:12:02.752Z,308.86
2019-05-11T09:13:01.445Z,309.02
2019-05-11T09:14:01.458Z,308.83
2019-05-11T09:15:01.361Z,308.80
2019-05-11T09:16:01.345Z,308.89
2019-05-11T09:17:01.373Z,309.21
2019-05-11T09:18:01.350Z,309.16
2019-05-11T09:19:01.343Z,308.96
2019-05-11T09:20:01.313Z,308.84
2019-05-11T09:21:01.293Z,309.04
2019-05-11T09:22:03.281Z,309.29
2019-05-11T09:23:01.283Z,309.27
2019-05-11T09:24:01.377Z,309.09
2019-05-11T09:25:01.431Z,309.49
2019-05-11T09:26:01.239Z,309.33
2019-05-11T09:27:01.231Z,309.41
2019-05-11T09:28:01.241Z,308.65
2019-05-11T09:29:01.209Z,309.34
2019-05-11T09:30:01.253Z,309.59
2019-05-11T09:31:01.185Z,310.01
2019-05-11T09:32:01.171Z,309.77
2019-05-11T09:33:01.159Z,309.54
2019-05-11T09:34:01.150Z,309.56
2019-05-11T09:35:01.144Z,309.92
2019-05-11T09:36:01.138Z,309.64
2019-05-11T09:37:01.125Z,309.44
2019-05-11T09:38:01.102Z,310.04
2019-05-11T09:39:01.097Z,309.33
2019-05-11T09:40:01.079Z,310.03
2019-05-11T09:41:01.098Z,310.34
2019-05-11T09:42:01.065Z,310.16
2019-05-11T09:43:01.059Z,309.83
2019-05-11T09:44:01.036Z,309.62
2019-05-11T09:45:01.059Z,309.78
2019-05-11T09:46:01.016Z,309.63
2019-05-11T09:47:02.690Z,309.51
2019-05-11T09:48:01.012Z,309.49
2019-05-11T09:49:00.981Z,310.01
2019-05-11T09:50:00.978Z,309.52
2019-05-11T09:51:00.958Z,309.65
2019-05-11T09:52:00.955Z,310.06
2019-05-11T09:53:00.954Z,309.62
2019-05-11T09:54:00.924Z,309.49
2019-05-11T09:55:00.918Z,309.61
2019-05-11T09:56:00.908Z,309.80
2019-05-11T09:57:00.900Z,309.19
2019-05-11T09:58:00.896Z,308.62
2019-05-11T09:59:00.874Z,309.21
2019-05-11T10:00:00.860Z,308.63
2019-05-11T10:01:00.960Z,308.71
2019-05-11T10:02:00.836Z,308.89
2019-05-11T10:03:00.830Z,309.25
2019-05-11T10:04:00.828Z,308.61
2019-05-11T10:05:00.812Z,308.82
2019-05-11T10:06:00.794Z,308.88
2019-05-11T10:07:00.777Z,308.79
2019-05-11T10:08:00.766Z,308.99
2019-05-11T10:09:00.773Z,308.85
2019-05-11T10:10:00.779Z,308.99
2019-05-11T10:11:00.795Z,308.63
2019-05-11T10:12:00.721Z,308.57
2019-05-11T10:13:00.722Z,308.34
2019-05-11T10:14:00.749Z,308.69
2019-05-11T10:15:00.702Z,309.03
2019-05-11T10:16:06.767Z,309.41
2019-05-11T10:17:01.682Z,308.76
2019-05-11T10:18:00.662Z,308.78
2019-05-11T10:19:00.645Z,309.15
2019-05-11T10:20:00.658Z,308.70
2019-05-11T10:21:00.647Z,309.49
2019-05-11T10:22:00.608Z,309.07
2019-05-11T10:23:00.598Z,309.13
2019-05-11T10:24:00.633Z,308.93
2019-05-11T10:25:00.582Z,309.12
2019-05-11T10:26:00.581Z,308.84
2019-05-11T10:27:00.763Z,308.93
2019-05-11T10:28:00.544Z,309.52
2019-05-11T10:29:00.536Z,309.11
2019-05-11T10:30:00.521Z,309.10
2019-05-11T10:31:00.522Z,309.10
2019-05-11T10:32:00.539Z,309.07
2019-05-11T10:33:00.531Z,309.05
2019-05-11T10:34:00.480Z,309.12
2019-05-11T10:35:00.466Z,309.25
2019-05-11T10:36:03.102Z,309.44
2019-05-11T10:37:00.451Z,309.35
2019-05-11T10:38:00.455Z,309.17
2019-05-11T10:39:00.485Z,309.66
2019-05-11T10:40:00.480Z,309.72
2019-05-11T10:41:00.427Z,309.83
2019-05-11T10:42:00.396Z,309.11
2019-05-11T10:43:00.396Z,309.09
2019-05-11T10:44:00.365Z,309.23
2019-05-11T10:45:00.357Z,309.07
2019-05-11T10:46:15.671Z,309.22
2019-05-11T10:47:01.359Z,308.90
2019-05-11T10:48:01.113Z,309.35
2019-05-11T10:49:00.322Z,308.83
2019-05-11T10:50:00.355Z,309.15
2019-05-11T10:51:00.476Z,309.10
2019-05-11T10:52:00.341Z,309.56
2019-05-11T10:53:00.264Z,309.37
2019-05-11T10:54:00.280Z,308.92
2019-05-11T10:55:00.243Z,308.88
2019-05-11T10:56:00.235Z,309.77
2019-05-11T10:57:00.217Z,309.24
2019-05-11T10:58:00.651Z,309.08
2019-05-11T10:59:00.197Z,308.87
2019-05-11T11:00:00.206Z,308.89
2019-05-11T11:01:00.178Z,309.22
2019-05-11T11:02:00.222Z,309.27
2019-05-11T11:03:00.156Z,308.83
2019-05-11T11:04:00.142Z,308.79
2019-05-11T11:05:00.133Z,308.92
2019-05-11T11:06:00.140Z,308.14
2019-05-11T11:07:00.113Z,308.43
2019-05-11T11:08:00.119Z,308.65
2019-05-11T11:09:00.085Z,307.72
2019-05-11T11:10:00.103Z,307.60
2019-05-11T11:11:00.066Z,307.82
2019-05-11T11:12:00.050Z,308.22
2019-05-11T11:13:00.045Z,307.86
2019-05-11T11:14:00.054Z,308.10
2019-05-11T11:15:00.039Z,307.77
2019-05-11T11:16:02.035Z,308.51
2019-05-11T11:17:00.018Z,308.55
2019-05-11T11:17:59.988Z,308.48
2019-05-11T11:18:59.978Z,308.38
2019-05-11T11:19:59.966Z,308.88
2019-05-11T11:20:59.960Z,308.51
2019-05-11T11:22:28.424Z,308.54
2019-05-11T11:23:00.944Z,308.85
2019-05-11T11:23:59.916Z,308.21
2019-05-11T11:24:59.912Z,308.30
2019-05-11T11:25:59.907Z,308.31
2019-05-11T11:26:59.956Z,308.46
2019-05-11T11:27:59.950Z,308.14
2019-05-11T11:28:59.964Z,307.81
2019-05-11T11:29:59.850Z,308.15
2019-05-11T11:30:59.859Z,308.11
2019-05-11T11:31:59.966Z,308.09
2019-05-11T11:32:59.924Z,308.08
2019-05-11T11:33:59.854Z,308.34
2019-05-11T11:34:59.883Z,308.18
2019-05-11T11:35:59.794Z,307.56
2019-05-11T11:36:59.789Z,308.21
2019-05-11T11:37:59.813Z,307.78
2019-05-11T11:38:59.755Z,307.23
2019-05-11T11:39:59.768Z,307.45
2019-05-11T11:40:59.750Z,307.80
2019-05-11T11:41:59.723Z,307.56
2019-05-11T11:42:59.726Z,307.82
2019-05-11T11:43:59.700Z,307.82
2019-05-11T11:44:59.703Z,307.63
2019-05-11T11:45:59.679Z,308.55
2019-05-11T11:46:59.706Z,307.99
2019-05-11T11:47:59.655Z,307.64
2019-05-11T11:48:59.690Z,308.60
2019-05-11T11:49:59.640Z,307.83
2019-05-11T11:50:59.652Z,307.68
2019-05-11T11:51:59.609Z,307.44
2019-05-11T11:52:59.605Z,307.30
2019-05-11T11:53:59.592Z,308.02
2019-05-11T11:54:59.572Z,308.51
2019-05-11T11:55:59.598Z,307.71
2019-05-11T11:56:59.555Z,308.13
2019-05-11T11:57:59.537Z,308.18
2019-05-11T11:58:59.528Z,308.13
2019-05-11T11:59:59.517Z,307.87
2019-05-11T12:00:59.559Z,308.55
2019-05-11T12:01:59.508Z,308.03
2019-05-11T12:02:59.487Z,307.16
2019-05-11T12:03:59.471Z,307.52
2019-05-11T12:04:59.463Z,307.48
2019-05-11T12:05:59.463Z,307.69
2019-05-11T12:06:59.463Z,307.16
2019-05-11T12:07:59.434Z,307.53
2019-05-11T12:08:59.415Z,307.18
2019-05-11T12:10:00.339Z,306.99
2019-05-11T12:11:00.338Z,307.25
2019-05-11T12:11:59.383Z,307.54
2019-05-11T12:12:59.407Z,307.49
2019-05-11T12:13:59.357Z,307.52
2019-05-11T12:14:59.369Z,307.92
2019-05-11T12:15:59.333Z,307.87
2019-05-11T12:17:07.436Z,307.62
2019-05-11T12:18:00.338Z,307.19
2019-05-11T12:18:59.358Z,307.75
2019-05-11T12:19:59.298Z,307.14
2019-05-11T12:20:59.283Z,307.03
2019-05-11T12:21:59.343Z,307.06
2019-05-11T12:22:59.275Z,307.05
2019-05-11T12:23:59.270Z,306.53
2019-05-11T12:24:59.248Z,306.89
2019-05-11T12:25:59.219Z,307.08
2019-05-11T12:26:59.200Z,307.62
2019-05-11T12:27:59.190Z,307.02